| time (UTC) | temp F | wind direction | speed MPH | gust MPH | rain 1hr in | rain 24hr in | rain mn in | humidity % | barometer mb |
| 20260505193746 | 74 | 191 | 1.0 | 5.0 | 0.00 | 0.28 | 0.28 | 48 | 1012.6 |
| 20260505193244 | 73 | 213 | 4.0 | 6.0 | 0.00 | 0.28 | 0.28 | 49 | 1012.3 |
| 20260505192742 | 73 | 301 | 5.0 | 15.0 | 0.00 | 0.28 | 0.28 | 51 | 1012.6 |
| 20260505192240 | 71 | 251 | 9.0 | 11.0 | 0.00 | 0.28 | 0.28 | 53 | 1012.5 |
| 20260505191738 | 71 | 217 | 4.0 | 7.0 | 0.00 | 0.28 | 0.28 | 55 | 1012.6 |
| 20260505191236 | 71 | 250 | 5.0 | 9.0 | 0.00 | 0.28 | 0.28 | 54 | 1013.1 |
| 20260505190732 | 69 | 330 | 5.0 | 8.0 | 0.00 | 0.28 | 0.28 | 56 | 1013.1 |
| 20260505190232 | 69 | 195 | 5.0 | 7.0 | 0.00 | 0.28 | 0.28 | 58 | 1013.2 |
| 20260505185728 | 69 | 108 | 3.0 | 6.0 | 0.00 | 0.28 | 0.28 | 59 | 1013.2 |
| 20260505185225 | 71 | 234 | 3.0 | 3.0 | 0.00 | 0.28 | 0.28 | 59 | 1013.4 |
| 20260505184721 | 69 | 128 | 2.0 | 6.0 | 0.00 | 0.28 | 0.28 | 61 | 1013.5 |
| 20260505184219 | 69 | 188 | 0.0 | 2.0 | 0.00 | 0.28 | 0.28 | 61 | 1013.5 |
| 20260505183715 | 69 | 88 | 3.0 | 5.0 | 0.00 | 0.28 | 0.28 | 61 | 1013.3 |
| 20260505183213 | 69 | 95 | 4.0 | 6.0 | 0.00 | 0.28 | 0.28 | 61 | 1013.5 |
| 20260505182709 | 68 | 81 | 2.0 | 5.0 | 0.00 | 0.28 | 0.28 | 65 | 1013.3 |
| 20260505182206 | 67 | 154 | 0.0 | 3.0 | 0.00 | 0.28 | 0.28 | 66 | 1013.5 |
| 20260505181702 | 68 | 89 | 2.0 | 5.0 | 0.00 | 0.28 | 0.28 | 68 | 1013.9 |
| 20260505181200 | 67 | 185 | 1.0 | 2.0 | 0.00 | 0.28 | 0.28 | 68 | 1013.8 |
| 20260505180656 | 66 | 184 | 2.0 | 5.0 | 0.00 | 0.28 | 0.28 | 69 | 1013.8 |
| 20260505180153 | 67 | 182 | 1.0 | 3.0 | 0.00 | 0.28 | 0.28 | 69 | 1013.8 |
| 20260505175649 | 67 | 25 | 2.0 | 5.0 | 0.00 | 0.28 | 0.28 | 68 | 1014.0 |
| 20260505175146 | 67 | 137 | 1.0 | 5.0 | 0.00 | 0.28 | 0.28 | 70 | 1013.7 |
| 20260505174642 | 66 | 143 | 3.0 | 3.0 | 0.00 | 0.28 | 0.28 | 70 | 1014.0 |
| 20260505174138 | 66 | 81 | 2.0 | 6.0 | 0.00 | 0.28 | 0.28 | 70 | 1014.0 |
| 20260505173635 | 65 | 72 | 2.0 | 3.0 | 0.00 | 0.28 | 0.28 | 73 | 1013.9 |
| 20260505173132 | 64 | 169 | 1.0 | 3.0 | 0.00 | 0.28 | 0.28 | 77 | 1013.9 |
| 20260505172630 | 63 | 144 | 2.0 | 2.0 | 0.00 | 0.28 | 0.28 | 77 | 1014.2 |
| 20260505172126 | 63 | 116 | 3.0 | 5.0 | 0.00 | 0.28 | 0.28 | 79 | 1013.9 |
| 20260505171621 | 63 | 77 | 3.0 | 3.0 | 0.00 | 0.28 | 0.28 | 78 | 1014.2 |
| 20260505171118 | 63 | 164 | 0.0 | 0.0 | 0.00 | 0.28 | 0.28 | 78 | 1014.2 |
| 20260505170615 | 63 | 174 | 1.0 | 3.0 | 0.00 | 0.28 | 0.28 | 78 | 1014.0 |
| 20260505170111 | 64 | 186 | 1.0 | 3.0 | 0.00 | 0.28 | 0.28 | 75 | 1013.9 |
| 20260505165607 | 64 | 82 | 1.0 | 2.0 | 0.00 | 0.28 | 0.28 | 75 | 1014.2 |
| 20260505165103 | 65 | 147 | 3.0 | 5.0 | 0.00 | 0.28 | 0.28 | 74 | 1014.0 |
| 20260505164559 | 65 | 181 | 0.0 | 1.0 | 0.00 | 0.28 | 0.28 | 73 | 1014.1 |
| 20260505164056 | 64 | 175 | 1.0 | 1.0 | 0.00 | 0.28 | 0.28 | 76 | 1014.0 |
| 20260505163555 | 64 | 172 | 1.0 | 1.0 | 0.00 | 0.28 | 0.28 | 76 | 1014.1 |
| 20260505163052 | 64 | 197 | 0.0 | 1.0 | 0.00 | 0.28 | 0.28 | 77 | 1014.0 |
| 20260505162550 | 64 | 78 | 1.0 | 2.0 | 0.00 | 0.28 | 0.28 | 80 | 1014.1 |
| 20260505162047 | 64 | 199 | 1.0 | 2.0 | 0.00 | 0.28 | 0.28 | 80 | 1014.1 |
| 20260505161544 | 63 | 155 | 1.0 | 1.0 | 0.00 | 0.28 | 0.28 | 79 | 1014.2 |
| 20260505161041 | 62 | 194 | 0.0 | 1.0 | 0.00 | 0.28 | 0.28 | 82 | 1014.1 |
| 20260505160539 | 63 | 183 | 0.0 | 2.0 | 0.00 | 0.28 | 0.28 | 80 | 1014.0 |
| 20260505153015 | 61 | 194 | 1.0 | 2.0 | 0.00 | 0.28 | 0.28 | 86 | 1013.9 |
| 20260505152512 | 61 | 209 | 1.0 | 2.0 | 0.00 | 0.28 | 0.28 | 89 | 1014.1 |
| 20260505152008 | 60 | 195 | 1.0 | 2.0 | 0.00 | 0.28 | 0.28 | 90 | 1014.1 |
| 20260505151503 | 60 | 230 | 2.0 | 2.0 | 0.00 | 0.28 | 0.28 | 92 | 1014.1 |
| 20260505151001 | 59 | 188 | 0.0 | 1.0 | 0.00 | 0.28 | 0.28 | 93 | 1013.9 |
| 20260505150457 | 59 | 209 | 2.0 | 2.0 | 0.00 | 0.28 | 0.28 | 95 | 1014.0 |
| 20260505140427 | 58 | 184 | 0.0 | 1.0 | 0.00 | 0.28 | 0.28 | 99 | 1013.9 |
| 20260505124841 | 57 | 179 | 0.0 | 0.0 | 0.00 | 0.28 | 0.28 | 99 | 1013.3 |
| 20260505124338 | 56 | 183 | 0.0 | 0.0 | 0.00 | 0.28 | 0.28 | 99 | 1013.3 |
| 20260505123834 | 56 | 219 | 0.0 | 1.0 | 0.00 | 0.28 | 0.28 | 99 | 1012.9 |
| 20260505123330 | 56 | 194 | 0.0 | 0.0 | 0.00 | 0.28 | 0.28 | 99 | 1013.3 |
| 20260505122826 | 56 | 162 | 0.0 | 0.0 | 0.00 | 0.28 | 0.28 | 99 | 1013.1 |
| 20260505122324 | 56 | 199 | 0.0 | 1.0 | 0.00 | 0.28 | 0.28 | 99 | 1012.8 |
| 20260505121821 | 56 | 179 | 0.0 | 0.0 | 0.00 | 0.28 | 0.28 | 99 | 1012.7 |
| 20260505121318 | 57 | 189 | 0.0 | 0.0 | 0.00 | 0.28 | 0.28 | 99 | 1012.8 |
| 20260505120814 | 57 | 175 | 0.0 | 0.0 | 0.00 | 0.28 | 0.28 | 99 | 1012.7 |
| 20260505120310 | 57 | 172 | 0.0 | 0.0 | 0.05 | 0.28 | 0.28 | 99 | 1012.7 |
| 20260505115808 | 57 | 180 | 0.0 | 0.0 | 0.00 | 0.27 | 0.27 | 99 | 1012.8 |
| 20260505115306 | 56 | 184 | 0.0 | 0.0 | 0.00 | 0.27 | 0.27 | 99 | 1012.8 |
| 20260505114804 | 57 | 167 | 0.0 | 0.0 | 0.00 | 0.27 | 0.27 | 99 | 1012.9 |
| 20260505114300 | 57 | 156 | 1.0 | 1.0 | 0.00 | 0.27 | 0.27 | 99 | 1012.8 |
| 20260505113756 | 57 | 187 | 0.0 | 0.0 | 0.00 | 0.27 | 0.27 | 99 | 1013.1 |
| 20260505113253 | 57 | 175 | 0.0 | 2.0 | 0.07 | 0.27 | 0.27 | 99 | 1012.8 |
| 20260505112749 | 57 | 183 | 0.0 | 1.0 | 0.12 | 0.27 | 0.27 | 99 | 1013.1 |
| 20260505112247 | 57 | 123 | 1.0 | 2.0 | 0.00 | 0.25 | 0.25 | 99 | 1013.3 |
| 20260505111747 | 57 | 203 | 0.0 | 1.0 | 0.07 | 0.25 | 0.25 | 99 | 1013.6 |
| 20260505111243 | 57 | 197 | 0.0 | 1.0 | 0.05 | 0.24 | 0.24 | 99 | 1013.5 |
| 20260505110739 | 57 | 163 | 0.0 | 1.0 | 0.05 | 0.24 | 0.24 | 99 | 1012.9 |
| 20260505110237 | 57 | 207 | 0.0 | 2.0 | 0.00 | 0.23 | 0.23 | 99 | 1013.4 |
| 20260505102212 | 58 | 184 | 3.0 | 3.0 | 0.00 | 0.22 | 0.22 | 99 | 1013.5 |
| 20260505101711 | 58 | 206 | 2.0 | 2.0 | 0.00 | 0.22 | 0.22 | 99 | 1013.6 |
| 20260505101206 | 58 | 217 | 3.0 | 3.0 | 0.00 | 0.22 | 0.22 | 99 | 1013.7 |
| 20260505100703 | 58 | 146 | 2.0 | 3.0 | 0.00 | 0.22 | 0.22 | 99 | 1013.7 |
| 20260505100200 | 57 | 205 | 4.0 | 7.0 | 0.00 | 0.22 | 0.22 | 99 | 1013.5 |
| 20260505095655 | 58 | 221 | 1.0 | 3.0 | 0.00 | 0.22 | 0.22 | 99 | 1013.7 |
| 20260505095154 | 57 | 224 | 3.0 | 5.0 | 0.05 | 0.22 | 0.22 | 99 | 1013.7 |
| 20260505094649 | 58 | 169 | 1.0 | 2.0 | 0.05 | 0.22 | 0.22 | 99 | 1013.7 |
| 20260505094146 | 58 | 186 | 2.0 | 3.0 | 0.07 | 0.21 | 0.21 | 99 | 1013.9 |
| 20260505093642 | 58 | 212 | 2.0 | 2.0 | 0.14 | 0.21 | 0.21 | 99 | 1014.0 |
| 20260505093140 | 58 | 205 | 2.0 | 3.0 | 0.12 | 0.20 | 0.20 | 99 | 1013.6 |
| 20260505092636 | 58 | 151 | 0.0 | 1.0 | 0.12 | 0.19 | 0.19 | 99 | 1013.9 |
| 20260505092135 | 58 | 180 | 1.0 | 1.0 | 0.05 | 0.17 | 0.17 | 99 | 1014.5 |
| 20260505091632 | 58 | 128 | 1.0 | 1.0 | 0.07 | 0.16 | 0.16 | 99 | 1014.2 |
| 20260505091130 | 58 | 201 | 0.0 | 1.0 | 0.00 | 0.15 | 0.15 | 99 | 1014.8 |
| 20260505090627 | 58 | 197 | 0.0 | 2.0 | 0.05 | 0.15 | 0.15 | 99 | 1014.9 |
| 20260505090125 | 58 | 174 | 1.0 | 1.0 | 0.12 | 0.15 | 0.15 | 99 | 1015.0 |
| 20260505085622 | 58 | 186 | 1.0 | 1.0 | 0.07 | 0.14 | 0.14 | 99 | 1015.1 |
| 20260505085120 | 58 | 217 | 1.0 | 1.0 | 0.05 | 0.13 | 0.13 | 99 | 1015.2 |
| 20260505084618 | 58 | 185 | 0.0 | 1.0 | 0.05 | 0.13 | 0.13 | 99 | 1015.2 |
| 20260505084116 | 58 | 196 | 1.0 | 2.0 | 0.07 | 0.12 | 0.12 | 99 | 1015.3 |
| 20260505083613 | 58 | 204 | 0.0 | 1.0 | 0.07 | 0.12 | 0.12 | 99 | 1015.4 |
| 20260505083109 | 58 | 195 | 0.0 | 2.0 | 0.05 | 0.11 | 0.11 | 99 | 1015.8 |
| 20260505082605 | 58 | 207 | 1.0 | 2.0 | 0.07 | 0.10 | 0.10 | 99 | 1015.6 |
| 20260505082103 | 58 | 188 | 0.0 | 3.0 | 0.14 | 0.10 | 0.10 | 98 | 1015.5 |
| 20260505081559 | 58 | 131 | 1.0 | 1.0 | 0.12 | 0.09 | 0.09 | 98 | 1015.4 |
| 20260505081056 | 58 | 196 | 1.0 | 1.0 | 0.12 | 0.08 | 0.08 | 98 | 1015.8 |
| 20260505080552 | 58 | 131 | 2.0 | 2.0 | 0.12 | 0.07 | 0.07 | 98 | 1015.8 |
| 20260505080049 | 58 | 183 | 1.0 | 1.0 | 0.12 | 0.06 | 0.06 | 98 | 1015.9 |
| 20260505075545 | 58 | 185 | 0.0 | 1.0 | 0.12 | 0.05 | 0.05 | 98 | 1016.0 |
| 20260505075042 | 58 | 190 | 0.0 | 1.0 | 0.05 | 0.04 | 0.04 | 98 | 1016.3 |
| 20260505074539 | 58 | 189 | 0.0 | 0.0 | 0.00 | 0.03 | 0.03 | 98 | 1016.4 |
| 20260505074036 | 58 | 215 | 1.0 | 1.0 | 0.07 | 0.03 | 0.03 | 97 | 1016.0 |
| 20260505073533 | 58 | 211 | 0.0 | 1.0 | 0.00 | 0.02 | 0.02 | 97 | 1015.8 |
| 20260505073032 | 58 | 179 | 0.0 | 2.0 | 0.05 | 0.02 | 0.02 | 97 | 1016.0 |
| 20260505072527 | 58 | 186 | 0.0 | 1.0 | 0.05 | 0.02 | 0.02 | 97 | 1016.2 |
| 20260505072023 | 58 | 190 | 0.0 | 0.0 | 0.00 | 0.01 | 0.01 | 96 | 1016.1 |
| 20260505071519 | 58 | 194 | 0.0 | 0.0 | 0.07 | 0.01 | 0.01 | 96 | 1016.1 |
| 20260505071018 | 58 | 203 | 1.0 | 1.0 | 0.07 | 0.01 | 0.01 | 96 | 1016.1 |
| 20260505070515 | 58 | 183 | 0.0 | 1.0 | 0.00 | 0.00 | 0.00 | 95 | 1016.1 |
| 20260505070010 | 58 | 191 | 0.0 | 1.0 | 0.00 | 0.05 | 0.05 | 95 | 1016.0 |
| 20260505065506 | 58 | 204 | 1.0 | 1.0 | 0.05 | 0.05 | 0.05 | 94 | 1016.0 |
| 20260505065003 | 59 | 163 | 1.0 | 2.0 | 0.05 | 0.05 | 0.05 | 94 | 1016.1 |
| 20260505064500 | 58 | 193 | 0.0 | 2.0 | 0.00 | 0.04 | 0.04 | 94 | 1016.2 |
| 20260505063958 | 58 | 230 | 1.0 | 1.0 | 0.00 | 0.04 | 0.04 | 94 | 1016.4 |
| 20260505063455 | 58 | 228 | 1.0 | 2.0 | 0.00 | 0.04 | 0.04 | 94 | 1016.4 |
| 20260505062951 | 58 | 225 | 2.0 | 2.0 | 0.07 | 0.04 | 0.04 | 95 | 1016.3 |
| 20260505062448 | 59 | 251 | 3.0 | 3.0 | 0.07 | 0.04 | 0.04 | 95 | 1016.4 |
| 20260505061945 | 58 | 209 | 0.0 | 2.0 | 0.00 | 0.03 | 0.03 | 95 | 1016.4 |
| 20260505061443 | 58 | 250 | 3.0 | 3.0 | 0.00 | 0.03 | 0.03 | 95 | 1016.4 |
| 20260505060940 | 58 | 204 | 0.0 | 2.0 | 0.00 | 0.03 | 0.03 | 96 | 1015.9 |
| 20260505060437 | 58 | 193 | 0.0 | 1.0 | 0.00 | 0.03 | 0.03 | 96 | 1015.9 |
| 20260505055933 | 59 | 167 | 1.0 | 1.0 | 0.00 | 0.03 | 0.03 | 96 | 1015.9 |
| 20260505055430 | 58 | 199 | 0.0 | 1.0 | 0.00 | 0.03 | 0.03 | 96 | 1016.1 |
| 20260505054926 | 58 | 225 | 1.0 | 1.0 | 0.00 | 0.03 | 0.03 | 96 | 1016.3 |
| 20260505054424 | 58 | 216 | 1.0 | 1.0 | 0.00 | 0.03 | 0.03 | 95 | 1016.0 |
| 20260505053922 | 59 | 194 | 2.0 | 3.0 | 0.00 | 0.03 | 0.03 | 95 | 1016.0 |
| 20260505053419 | 59 | 95 | 3.0 | 3.0 | 0.00 | 0.03 | 0.03 | 95 | 1015.9 |
| 20260505052916 | 59 | 99 | 2.0 | 2.0 | 0.05 | 0.03 | 0.03 | 95 | 1015.8 |
| 20260505052412 | 59 | 211 | 1.0 | 1.0 | 0.05 | 0.03 | 0.03 | 94 | 1015.6 |
| 20260505051910 | 59 | 146 | 1.0 | 1.0 | 0.00 | 0.02 | 0.02 | 95 | 1016.0 |
| 20260505051407 | 59 | 187 | 0.0 | 1.0 | 0.00 | 0.02 | 0.02 | 95 | 1016.0 |
| 20260505050905 | 59 | 201 | 0.0 | 1.0 | 0.00 | 0.02 | 0.02 | 94 | 1016.1 |
| 20260505050403 | 59 | 181 | 0.0 | 1.0 | 0.00 | 0.02 | 0.02 | 94 | 1015.9 |
| 20260505041330 | 62 | 146 | 3.0 | 5.0 | 0.00 | 0.00 | 0.00 | 76 | 1015.8 |
| 20260505040827 | 62 | 219 | 5.0 | 6.0 | 0.00 | 0.00 | 0.00 | 77 | 1015.2 |
| 20260505040325 | 62 | 244 | 4.0 | 6.0 | 0.00 | 0.00 | 0.00 | 77 | 1015.2 |
| 20260505035822 | 62 | 220 | 2.0 | 3.0 | 0.00 | 0.00 | 0.00 | 77 | 1015.3 |
| 20260505035317 | 62 | 199 | 1.0 | 2.0 | 0.00 | 0.00 | 0.00 | 77 | 1015.0 |
| 20260505034815 | 62 | 185 | 1.0 | 3.0 | 0.00 | 0.00 | 0.00 | 77 | 1015.0 |
| 20260505034311 | 62 | 207 | 3.0 | 3.0 | 0.00 | 0.00 | 0.00 | 77 | 1015.3 |
| 20260505033808 | 62 | 117 | 3.0 | 7.0 | 0.00 | 0.00 | 0.00 | 77 | 1014.9 |
| 20260505033305 | 62 | 197 | 5.0 | 6.0 | 0.00 | 0.00 | 0.00 | 77 | 1014.9 |
| 20260505032804 | 62 | 168 | 5.0 | 7.0 | 0.00 | 0.00 | 0.00 | 76 | 1015.0 |
| 20260505032259 | 62 | 185 | 5.0 | 11.0 | 0.00 | 0.00 | 0.00 | 74 | 1015.4 |
| 20260505031757 | 62 | 185 | 2.0 | 3.0 | 0.00 | 0.00 | 0.00 | 74 | 1015.6 |
| 20260505031253 | 62 | 213 | 3.0 | 3.0 | 0.00 | 0.00 | 0.00 | 73 | 1015.6 |
| 20260505030750 | 62 | 93 | 3.0 | 5.0 | 0.00 | 0.00 | 0.00 | 74 | 1015.4 |
| 20260505030246 | 62 | 72 | 5.0 | 6.0 | 0.00 | 0.00 | 0.00 | 74 | 1015.4 |
| 20260505025742 | 62 | 163 | 4.0 | 10.0 | 0.00 | 0.00 | 0.00 | 73 | 1015.3 |
| 20260505025240 | 63 | 187 | 5.0 | 15.0 | 0.00 | 0.00 | 0.00 | 71 | 1015.1 |
| 20260505024738 | 63 | 102 | 10.0 | 13.0 | 0.00 | 0.00 | 0.00 | 68 | 1015.1 |
| 20260505024235 | 64 | 141 | 10.0 | 17.0 | 0.00 | 0.00 | 0.00 | 66 | 1014.8 |
| 20260505023732 | 65 | 150 | 4.0 | 14.0 | 0.00 | 0.00 | 0.00 | 65 | 1014.5 |
| 20260505023230 | 66 | 141 | 9.0 | 11.0 | 0.00 | 0.00 | 0.00 | 62 | 1014.7 |
| 20260505022727 | 65 | 133 | 4.0 | 13.0 | 0.00 | 0.00 | 0.00 | 62 | 1014.7 |
| 20260505022224 | 64 | 182 | 4.0 | 7.0 | 0.00 | 0.00 | 0.00 | 68 | 1014.8 |
| 20260505021720 | 64 | 211 | 3.0 | 8.0 | 0.00 | 0.00 | 0.00 | 66 | 1015.2 |
| 20260505021218 | 64 | 193 | 3.0 | 7.0 | 0.00 | 0.00 | 0.00 | 65 | 1015.1 |
| 20260505020713 | 65 | 186 | 2.0 | 5.0 | 0.00 | 0.00 | 0.00 | 65 | 1015.3 |
| 20260505020208 | 65 | 195 | 3.0 | 7.0 | 0.00 | 0.00 | 0.00 | 60 | 1015.3 |
| 20260505015706 | 66 | 229 | 3.0 | 9.0 | 0.00 | 0.00 | 0.00 | 59 | 1015.8 |
| 20260505015203 | 67 | 144 | 3.0 | 10.0 | 0.00 | 0.00 | 0.00 | 55 | 1015.8 |
| 20260505014700 | 70 | 215 | 7.0 | 8.0 | 0.00 | 0.00 | 0.00 | 48 | 1015.4 |
| 20260505014157 | 70 | 219 | 6.0 | 11.0 | 0.00 | 0.00 | 0.00 | 45 | 1015.1 |
| 20260505013654 | 71 | 273 | 5.0 | 6.0 | 0.00 | 0.00 | 0.00 | 44 | 1014.8 |
| 20260505013151 | 71 | 206 | 1.0 | 2.0 | 0.00 | 0.00 | 0.00 | 41 | 1014.6 |
| 20260505012649 | 71 | 215 | 0.0 | 2.0 | 0.00 | 0.00 | 0.00 | 41 | 1014.6 |
| 20260505012147 | 71 | 163 | 2.0 | 3.0 | 0.00 | 0.00 | 0.00 | 41 | 1014.7 |
| 20260505011642 | 70 | 171 | 2.0 | 6.0 | 0.00 | 0.00 | 0.00 | 41 | 1014.6 |
| 20260505011139 | 70 | 103 | 3.0 | 5.0 | 0.00 | 0.00 | 0.00 | 41 | 1014.6 |
| 20260505010634 | 71 | 177 | 5.0 | 9.0 | 0.00 | 0.00 | 0.00 | 40 | 1014.4 |
| 20260505010131 | 71 | 138 | 5.0 | 7.0 | 0.00 | 0.00 | 0.00 | 40 | 1014.4 |
| 20260505005627 | 71 | 98 | 7.0 | 8.0 | 0.00 | 0.00 | 0.00 | 39 | 1014.5 |
| 20260505005124 | 71 | 73 | 3.0 | 6.0 | 0.00 | 0.00 | 0.00 | 38 | 1014.6 |
| 20260505004621 | 72 | 80 | 2.0 | 6.0 | 0.00 | 0.00 | 0.00 | 38 | 1014.6 |
| 20260505004118 | 72 | 205 | 2.0 | 3.0 | 0.00 | 0.00 | 0.00 | 38 | 1014.7 |
| 20260505003615 | 72 | 203 | 5.0 | 6.0 | 0.00 | 0.00 | 0.00 | 38 | 1014.5 |
| 20260505003113 | 72 | 183 | 4.0 | 5.0 | 0.00 | 0.00 | 0.00 | 39 | 1014.6 |
| 20260505002609 | 72 | 240 | 4.0 | 6.0 | 0.00 | 0.00 | 0.00 | 39 | 1014.6 |
| 20260505002107 | 72 | 199 | 3.0 | 5.0 | 0.00 | 0.00 | 0.00 | 38 | 1014.5 |
| 20260505001604 | 71 | 172 | 3.0 | 8.0 | 0.00 | 0.00 | 0.00 | 38 | 1014.2 |
| 20260505001101 | 72 | 228 | 4.0 | 11.0 | 0.00 | 0.00 | 0.00 | 38 | 1014.1 |
| 20260505000558 | 71 | 216 | 2.0 | 9.0 | 0.00 | 0.00 | 0.00 | 38 | 1014.1 |
| 20260505000056 | 71 | 201 | 5.0 | 11.0 | 0.00 | 0.00 | 0.00 | 39 | 1013.9 |
| 20260504235552 | 71 | 213 | 4.0 | 11.0 | 0.00 | 0.00 | 0.00 | 40 | 1014.2 |
| 20260504235049 | 71 | 188 | 8.0 | 10.0 | 0.00 | 0.00 | 0.00 | 38 | 1014.2 |
| 20260504234546 | 72 | 234 | 3.0 | 10.0 | 0.00 | 0.00 | 0.00 | 38 | 1014.5 |
| 20260504234043 | 72 | 254 | 9.0 | 14.0 | 0.00 | 0.00 | 0.00 | 38 | 1014.5 |
| 20260504233538 | 73 | 227 | 8.0 | 11.0 | 0.00 | 0.00 | 0.00 | 37 | 1014.8 |
| 20260504233035 | 73 | 253 | 9.0 | 13.0 | 0.00 | 0.00 | 0.00 | 36 | 1014.9 |
| 20260504232532 | 74 | 212 | 6.0 | 11.0 | 0.00 | 0.00 | 0.00 | 37 | 1014.8 |
| 20260504232030 | 75 | 279 | 7.0 | 15.0 | 0.00 | 0.00 | 0.00 | 32 | 1014.8 |
| 20260504231526 | 76 | 278 | 9.0 | 22.0 | 0.00 | 0.00 | 0.00 | 30 | 1014.8 |
| 20260504231023 | 77 | 278 | 12.0 | 20.0 | 0.00 | 0.00 | 0.00 | 27 | 1014.6 |
| 20260504230519 | 77 | 246 | 5.0 | 7.0 | 0.00 | 0.00 | 0.00 | 28 | 1014.5 |
| 20260504230018 | 77 | 270 | 12.0 | 16.0 | 0.00 | 0.00 | 0.00 | 28 | 1014.6 |
| 20260504225515 | 77 | 198 | 7.0 | 15.0 | 0.00 | 0.00 | 0.00 | 28 | 1014.5 |
| 20260504225012 | 77 | 279 | 5.0 | 10.0 | 0.00 | 0.00 | 0.00 | 29 | 1014.1 |
| 20260504224509 | 77 | 229 | 7.0 | 16.0 | 0.00 | 0.00 | 0.00 | 29 | 1014.2 |
| 20260504224006 | 78 | 275 | 7.0 | 14.0 | 0.00 | 0.00 | 0.00 | 28 | 1014.1 |
| 20260504223502 | 78 | 272 | 10.0 | 17.0 | 0.00 | 0.00 | 0.00 | 28 | 1014.5 |
| 20260504222957 | 78 | 287 | 9.0 | 11.0 | 0.00 | 0.00 | 0.00 | 27 | 1014.4 |
| 20260504222455 | 78 | 310 | 5.0 | 11.0 | 0.00 | 0.00 | 0.00 | 27 | 1014.5 |
| 20260504221953 | 78 | 273 | 4.0 | 14.0 | 0.00 | 0.00 | 0.00 | 27 | 1014.4 |
| 20260504221450 | 79 | 228 | 9.0 | 11.0 | 0.00 | 0.00 | 0.00 | 27 | 1014.7 |
| 20260504220947 | 79 | 246 | 8.0 | 10.0 | 0.00 | 0.00 | 0.00 | 27 | 1014.5 |
| 20260504220443 | 80 | 250 | 6.0 | 9.0 | 0.00 | 0.00 | 0.00 | 27 | 1014.2 |
| 20260504215940 | 79 | 248 | 3.0 | 7.0 | 0.00 | 0.00 | 0.00 | 27 | 1014.2 |
| 20260504215437 | 80 | 211 | 2.0 | 5.0 | 0.00 | 0.00 | 0.00 | 27 | 1014.2 |
| 20260504214933 | 80 | 278 | 5.0 | 16.0 | 0.00 | 0.00 | 0.00 | 26 | 1014.2 |
| 20260504214430 | 80 | 256 | 4.0 | 15.0 | 0.00 | 0.00 | 0.00 | 26 | 1014.4 |
| 20260504213926 | 81 | 297 | 9.0 | 11.0 | 0.00 | 0.00 | 0.00 | 26 | 1014.1 |
| 20260504213422 | 81 | 204 | 6.0 | 10.0 | 0.00 | 0.00 | 0.00 | 25 | 1014.4 |
| 20260504212920 | 80 | 295 | 7.0 | 9.0 | 0.00 | 0.00 | 0.00 | 25 | 1014.5 |
| 20260504212415 | 80 | 265 | 8.0 | 16.0 | 0.00 | 0.00 | 0.00 | 24 | 1014.6 |
| 20260504211914 | 80 | 228 | 3.0 | 5.0 | 0.00 | 0.00 | 0.00 | 24 | 1014.1 |
| 20260504211410 | 80 | 302 | 7.0 | 10.0 | 0.00 | 0.00 | 0.00 | 25 | 1014.1 |
| 20260504210907 | 79 | 254 | 5.0 | 10.0 | 0.00 | 0.00 | 0.00 | 25 | 1014.4 |
| 20260504210404 | 79 | 230 | 8.0 | 13.0 | 0.00 | 0.00 | 0.00 | 25 | 1014.4 |
| 20260504205901 | 79 | 266 | 5.0 | 13.0 | 0.00 | 0.00 | 0.00 | 25 | 1014.1 |
| 20260504205359 | 79 | 255 | 7.0 | 10.0 | 0.00 | 0.00 | 0.00 | 24 | 1014.2 |
| 20260504204857 | 79 | 241 | 7.0 | 13.0 | 0.00 | 0.00 | 0.00 | 24 | 1014.1 |
| 20260504204355 | 80 | 240 | 10.0 | 15.0 | 0.00 | 0.00 | 0.00 | 23 | 1013.8 |
| 20260504203854 | 79 | 265 | 9.0 | 13.0 | 0.00 | 0.00 | 0.00 | 23 | 1013.9 |
| 20260504203350 | 80 | 265 | 10.0 | 15.0 | 0.00 | 0.00 | 0.00 | 23 | 1014.0 |
| 20260504202847 | 80 | 298 | 3.0 | 10.0 | 0.00 | 0.00 | 0.00 | 24 | 1014.1 |
| 20260504202344 | 80 | 235 | 11.0 | 15.0 | 0.00 | 0.00 | 0.00 | 23 | 1014.4 |
| 20260504201840 | 80 | 252 | 12.0 | 18.0 | 0.00 | 0.00 | 0.00 | 25 | 1014.4 |
| 20260504201338 | 79 | 266 | 12.0 | 20.0 | 0.00 | 0.00 | 0.00 | 25 | 1014.5 |
| 20260504200835 | 80 | 252 | 12.0 | 16.0 | 0.00 | 0.00 | 0.00 | 23 | 1014.4 |
| 20260504200331 | 80 | 303 | 9.0 | 14.0 | 0.00 | 0.00 | 0.00 | 24 | 1014.2 |
| 20260504195828 | 80 | 284 | 9.0 | 13.0 | 0.00 | 0.00 | 0.00 | 24 | 1014.0 |
| 20260504195323 | 80 | 289 | 8.0 | 11.0 | 0.00 | 0.00 | 0.00 | 23 | 1013.9 |
| 20260504194821 | 80 | 279 | 8.0 | 11.0 | 0.00 | 0.00 | 0.00 | 24 | 1014.0 |
| 20260504194316 | 80 | 276 | 9.0 | 11.0 | 0.00 | 0.00 | 0.00 | 24 | 1013.6 |
| 20260504193813 | 80 | 258 | 4.0 | 7.0 | 0.00 | 0.00 | 0.00 | 24 | 1013.4 |